Time;durP1;ratioP1;P1;durP2;ratioP2;P2;SDS_P1;SDS_P2;PMS_P1;PMS_P2;Temp;Humidity;BMP_temperature;BMP_pressure;BME280_temperature;BME280_humidity;BME280_pressure;Samples;Min_cycle;Max_cycle;Signal;HPM_P1;HPM_P2
2022/01/07 00:00:17;;;;;;;13.98;3.38;;;;;;;19.15;14.41;98588.97;4971799;28;20114;-75
2022/01/07 00:02:45;;;;;;;8.02;2.45;;;;;;;18.81;14.55;98593.13;4969461;28;20122;-75
2022/01/07 00:05:12;;;;;;;9.82;3.17;;;;;;;18.71;14.72;98593.84;4971413;28;20084;-75
2022/01/07 00:07:38;;;;;;;6.57;2.10;;;;;;;18.56;14.89;98590.13;4972760;28;20379;-75
2022/01/07 00:10:06;;;;;;;5.78;2.38;;;;;;;18.59;14.81;98598.53;4986989;28;20080;-75
2022/01/07 00:12:32;;;;;;;8.10;2.53;;;;;;;18.77;14.79;98600.63;4987095;28;20557;-75
2022/01/07 00:14:59;;;;;;;7.22;2.10;;;;;;;18.91;14.59;98600.72;4988168;28;20497;-75
2022/01/07 00:17:25;;;;;;;10.35;2.55;;;;;;;19.00;14.59;98604.78;4977332;28;20105;-76
2022/01/07 00:19:51;;;;;;;7.00;2.90;;;;;;;19.14;14.42;98609.63;4979013;28;20120;-75
2022/01/07 00:22:17;;;;;;;6.90;2.70;;;;;;;19.27;14.67;98602.56;4975957;28;20542;-75
2022/01/07 00:24:43;;;;;;;7.38;2.17;;;;;;;19.44;14.47;98613.03;4975302;28;20057;-75
2022/01/07 00:27:09;;;;;;;11.32;2.58;;;;;;;19.45;14.48;98613.81;4964878;28;20394;-75
2022/01/07 00:29:35;;;;;;;7.50;2.78;;;;;;;19.35;14.52;98615.34;4977570;28;20038;-76
2022/01/07 00:32:01;;;;;;;12.23;2.35;;;;;;;19.52;14.36;98613.88;4975805;28;20074;-75
2022/01/07 00:34:27;;;;;;;6.20;1.95;;;;;;;19.73;14.30;98614.75;4974348;28;20101;-75
2022/01/07 00:36:53;;;;;;;4.53;2.10;;;;;;;19.97;13.72;98616.03;4971469;28;20509;-75
2022/01/07 00:39:20;;;;;;;6.90;2.25;;;;;;;19.97;13.68;98616.84;4974694;28;20043;-75
2022/01/07 00:41:46;;;;;;;5.82;2.10;;;;;;;19.81;13.74;98626.75;4973447;28;20038;-75
2022/01/07 00:44:12;;;;;;;7.68;1.98;;;;;;;19.80;13.70;98634.28;4973531;28;20031;-75
2022/01/07 00:46:38;;;;;;;4.45;1.90;;;;;;;19.86;13.74;98643.09;4979499;28;20049;-75
2022/01/07 00:49:04;;;;;;;3.83;1.92;;;;;;;19.87;13.52;98636.31;4973237;28;20026;-75
2022/01/07 00:51:30;;;;;;;8.50;2.47;;;;;;;19.85;13.50;98638.69;4976900;28;20039;-75
2022/01/07 00:53:56;;;;;;;5.43;2.00;;;;;;;19.52;13.84;98638.94;4959271;28;20031;-75
2022/01/07 00:56:22;;;;;;;4.78;1.60;;;;;;;18.90;14.17;98641.69;4971354;28;20121;-75
2022/01/07 00:58:48;;;;;;;6.00;2.35;;;;;;;18.90;14.13;98644.47;4970758;28;20027;-75
2022/01/07 01:01:15;;;;;;;6.57;2.10;;;;;;;18.76;14.40;98646.34;4970643;28;20034;-75
2022/01/07 01:03:41;;;;;;;6.45;2.25;;;;;;;18.73;14.37;98649.88;4971381;28;20098;-75
2022/01/07 01:06:07;;;;;;;5.05;2.10;;;;;;;18.54;14.66;98648.94;4974624;28;20062;-75
2022/01/07 01:08:33;;;;;;;8.27;2.53;;;;;;;18.70;14.55;98645.06;4973094;28;20070;-75
2022/01/07 01:11:00;;;;;;;3.88;1.58;;;;;;;18.91;14.59;98650.81;4971863;28;20078;-75
2022/01/07 01:13:26;;;;;;;5.65;1.50;;;;;;;19.28;14.33;98649.50;4970426;28;20474;-75
2022/01/07 01:15:53;;;;;;;7.88;2.42;;;;;;;19.56;13.80;98650.88;4981929;28;20042;-75
2022/01/07 01:18:19;;;;;;;5.43;2.20;;;;;;;19.36;14.08;98647.59;4976090;28;20035;-75
2022/01/07 01:20:45;;;;;;;6.85;2.72;;;;;;;19.13;14.26;98639.47;4978540;28;20034;-75
2022/01/07 01:23:11;;;;;;;6.05;2.10;;;;;;;19.01;14.51;98639.78;4980388;28;20038;-75
2022/01/07 01:25:37;;;;;;;5.15;1.92;;;;;;;18.74;14.31;98634.81;4969192;28;20046;-75
2022/01/07 01:28:04;;;;;;;7.68;2.92;;;;;;;18.69;14.34;98629.59;4940582;28;20066;-75
2022/01/07 01:30:32;;;;;;;3.78;1.45;;;;;;;18.53;14.74;98630.63;4975862;28;20043;-75
2022/01/07 01:32:58;;;;;;;3.97;2.05;;;;;;;18.55;14.91;98630.25;4977769;28;20360;-75
2022/01/07 01:35:25;;;;;;;6.10;2.38;;;;;;;18.40;14.73;98634.84;4976844;28;20083;-75
2022/01/07 01:37:52;;;;;;;4.35;1.95;;;;;;;18.28;14.77;98637.09;4978957;28;20053;-75
2022/01/07 01:40:19;;;;;;;6.60;2.00;;;;;;;18.14;14.88;98640.53;4990945;28;20026;-75
2022/01/07 01:42:48;;;;;;;9.07;2.35;;;;;;;17.97;15.03;98641.13;4971597;28;20041;-75
2022/01/07 01:45:16;;;;;;;6.70;2.63;;;;;;;18.05;14.88;98631.69;4983154;28;19913;-75
2022/01/07 01:47:42;;;;;;;8.43;2.67;;;;;;;18.32;14.64;98632.41;4972243;28;20031;-75
2022/01/07 01:50:10;;;;;;;7.82;2.15;;;;;;;18.46;14.47;98635.34;4974047;28;20031;-75
2022/01/07 01:52:36;;;;;;;5.55;1.90;;;;;;;18.43;14.21;98636.06;4977407;28;20035;-75
2022/01/07 01:55:04;;;;;;;7.32;2.25;;;;;;;18.61;14.09;98637.88;4975535;28;20477;-75
2022/01/07 01:57:31;;;;;;;3.95;1.80;;;;;;;18.95;14.01;98635.75;4972430;28;20034;-75
2022/01/07 01:59:59;;;;;;;10.88;3.03;;;;;;;19.16;13.87;98630.31;4974930;28;20069;-75
2022/01/07 02:02:25;;;;;;;3.88;2.10;;;;;;;19.28;13.72;98626.44;4968260;28;20031;-75
2022/01/07 02:04:51;;;;;;;4.38;1.75;;;;;;;19.34;13.44;98624.88;4971790;28;20553;-75
2022/01/07 02:07:17;;;;;;;6.40;2.40;;;;;;;19.40;13.40;98630.91;4975779;28;20030;-75
2022/01/07 02:09:43;;;;;;;3.50;1.75;;;;;;;19.24;13.67;98625.63;4977435;28;20043;-75
2022/01/07 02:12:09;;;;;;;7.78;2.47;;;;;;;19.09;13.47;98621.16;4970578;28;20041;-75
2022/01/07 02:14:36;;;;;;;9.43;2.55;;;;;;;19.04;13.61;98621.50;4967594;28;20486;-75
2022/01/07 02:17:07;;;;;;;5.60;2.47;;;;;;;19.07;14.01;98615.16;4973900;28;20498;-75
2022/01/07 02:19:35;;;;;;;6.60;2.60;;;;;;;18.87;14.27;98609.06;4972728;28;20041;-75
2022/01/07 02:22:01;;;;;;;13.07;3.20;;;;;;;18.44;14.20;98607.06;4960190;28;20042;-75
2022/01/07 02:24:28;;;;;;;8.60;2.50;;;;;;;18.23;14.59;98612.44;4972559;28;20126;-75
2022/01/07 02:26:54;;;;;;;6.43;2.58;;;;;;;18.26;14.71;98609.69;4970533;28;20038;-75
2022/01/07 02:29:21;;;;;;;9.63;3.13;;;;;;;18.04;14.57;98610.63;4975774;28;20109;-75
2022/01/07 02:31:48;;;;;;;10.88;3.28;;;;;;;17.86;14.62;98615.22;4966624;28;20043;-75
2022/01/07 02:34:14;;;;;;;9.90;3.97;;;;;;;17.81;14.92;98601.66;4974212;28;20030;-75
2022/01/07 02:36:41;;;;;;;7.85;2.78;;;;;;;17.99;14.82;98607.44;4979124;28;20081;-75
2022/01/07 02:39:07;;;;;;;8.40;3.33;;;;;;;18.33;14.89;98604.22;4977705;28;20101;-75
2022/01/07 02:41:33;;;;;;;10.02;3.03;;;;;;;18.51;14.43;98610.75;4951367;28;20043;-75
2022/01/07 02:43:59;;;;;;;10.02;3.25;;;;;;;18.69;14.06;98612.91;4977402;28;20114;-75
2022/01/07 02:46:25;;;;;;;7.43;2.90;;;;;;;18.83;13.95;98605.47;4979454;28;20049;-75
2022/01/07 02:48:51;;;;;;;5.03;1.83;;;;;;;18.93;13.50;98618.63;4975679;28;20031;-75
2022/01/07 02:51:17;;;;;;;10.90;3.42;;;;;;;18.91;13.51;98620.22;4984426;28;20038;-75
2022/01/07 02:53:44;;;;;;;7.80;3.17;;;;;;;18.78;13.50;98616.16;4973484;28;20057;-74
2022/01/07 02:56:11;;;;;;;11.15;3.03;;;;;;;18.63;14.25;98607.69;4976953;28;20034;-74
2022/01/07 02:58:37;;;;;;;6.45;3.00;;;;;;;18.49;14.52;98607.56;4976008;28;20093;-74
2022/01/07 03:01:04;;;;;;;7.63;2.65;;;;;;;18.35;14.14;98614.94;4973902;28;20037;-74
2022/01/07 03:03:30;;;;;;;5.97;2.15;;;;;;;17.90;14.22;98610.47;4977187;28;20039;-74
2022/01/07 03:05:56;;;;;;;8.57;2.00;;;;;;;17.55;14.59;98618.41;4973084;28;20034;-74
2022/01/07 03:08:22;;;;;;;7.10;2.65;;;;;;;17.57;14.74;98618.84;4985638;28;20058;-74
2022/01/07 03:10:48;;;;;;;8.43;3.33;;;;;;;17.87;14.62;98619.59;4986007;28;20554;-74
2022/01/07 03:13:14;;;;;;;9.32;3.58;;;;;;;18.22;14.35;98610.84;4972196;28;20031;-74
2022/01/07 03:15:40;;;;;;;12.93;4.20;;;;;;;18.42;14.20;98612.22;4955552;28;20092;-75
2022/01/07 03:18:08;;;;;;;6.50;2.65;;;;;;;18.47;14.23;98612.72;4973458;28;20030;-74
2022/01/07 03:20:38;;;;;;;6.25;2.25;;;;;;;18.47;14.16;98609.94;4949462;28;20047;-74
2022/01/07 03:23:06;;;;;;;6.63;2.78;;;;;;;18.33;13.99;98612.53;4969967;28;20062;-74
2022/01/07 03:25:33;;;;;;;7.20;2.40;;;;;;;18.54;13.99;98603.63;4975541;28;20039;-74
2022/01/07 03:27:59;;;;;;;8.95;2.95;;;;;;;18.63;13.68;98607.69;4970935;28;20030;-74
2022/01/07 03:30:25;;;;;;;8.10;2.95;;;;;;;18.83;13.45;98613.00;4972204;28;20106;-75
2022/01/07 03:32:51;;;;;;;7.35;2.58;;;;;;;18.62;13.89;98611.63;4966924;28;20027;-74
2022/01/07 03:35:17;;;;;;;6.28;2.45;;;;;;;18.71;13.67;98614.13;4969519;28;20037;-74
2022/01/07 03:37:44;;;;;;;6.07;2.40;;;;;;;18.33;13.86;98607.00;4968120;28;20031;-75
2022/01/07 03:40:12;;;;;;;7.32;2.58;;;;;;;18.12;14.03;98608.75;4975486;28;20038;-75
2022/01/07 03:42:38;;;;;;;5.72;2.67;;;;;;;18.21;13.96;98612.00;4977648;28;20055;-74
2022/01/07 03:45:06;;;;;;;12.02;3.30;;;;;;;18.39;13.54;98611.00;4979281;28;20038;-75
2022/01/07 03:47:32;;;;;;;7.70;3.03;;;;;;;18.58;13.54;98605.25;4979421;28;20034;-74
2022/01/07 03:49:59;;;;;;;8.18;2.70;;;;;;;18.45;13.65;98603.13;4974370;28;20502;-74
2022/01/07 03:52:25;;;;;;;7.43;3.15;;;;;;;18.39;13.70;98602.66;4975575;28;20031;-74
2022/01/07 03:54:51;;;;;;;8.63;2.80;;;;;;;18.31;13.69;98598.25;4971214;28;20038;-74
2022/01/07 03:57:18;;;;;;;6.45;2.22;;;;;;;18.36;13.46;98608.22;4971214;28;20041;-75
2022/01/07 03:59:44;;;;;;;7.97;2.58;;;;;;;18.46;13.49;98610.31;4977151;28;20038;-75
2022/01/07 04:02:11;;;;;;;6.57;3.15;;;;;;;18.41;13.61;98605.84;4974461;28;20035;-74
2022/01/07 04:04:37;;;;;;;10.05;3.15;;;;;;;18.36;13.46;98603.44;4974343;28;20035;-74
2022/01/07 04:07:03;;;;;;;8.98;3.30;;;;;;;18.44;13.63;98607.06;4977659;28;20038;-74
2022/01/07 04:09:29;;;;;;;6.68;2.83;;;;;;;18.42;13.34;98612.22;4977589;28;20034;-74
2022/01/07 04:11:58;;;;;;;7.57;2.97;;;;;;;18.47;13.77;98611.91;4981390;28;20062;-74
2022/01/07 04:14:24;;;;;;;8.70;3.38;;;;;;;18.64;13.72;98605.72;4974475;28;20023;-74
2022/01/07 04:16:50;;;;;;;9.23;3.22;;;;;;;18.79;13.73;98604.63;4971468;28;20520;-74
2022/01/07 04:19:16;;;;;;;13.35;3.75;;;;;;;18.52;13.55;98606.00;4973524;28;20031;-74
2022/01/07 04:21:42;;;;;;;6.22;3.15;;;;;;;18.43;13.51;98602.72;4970930;28;20027;-74
2022/01/07 04:24:08;;;;;;;9.65;2.92;;;;;;;18.37;13.54;98610.59;4975368;28;20035;-74
2022/01/07 04:26:34;;;;;;;9.05;3.17;;;;;;;18.36;13.47;98609.00;4975360;28;20050;-74
2022/01/07 04:29:00;;;;;;;9.60;3.55;;;;;;;18.38;13.76;98606.66;4971154;28;20035;-74
2022/01/07 04:31:26;;;;;;;8.05;2.92;;;;;;;18.49;14.20;98602.00;4973346;28;20058;-74
2022/01/07 04:33:52;;;;;;;6.72;3.13;;;;;;;18.42;13.71;98601.91;4975241;28;20470;-74
2022/01/07 04:36:18;;;;;;;11.45;3.15;;;;;;;18.15;13.75;98600.47;4980063;28;20034;-74
2022/01/07 04:38:46;;;;;;;9.60;3.08;;;;;;;17.81;14.07;98615.53;4975784;28;20035;-74
2022/01/07 04:41:13;;;;;;;11.90;3.25;;;;;;;17.71;14.37;98617.00;4966380;28;20023;-74
2022/01/07 04:43:39;;;;;;;9.77;3.50;;;;;;;17.68;14.10;98617.78;4973583;28;20613;-74
2022/01/07 04:46:05;;;;;;;10.65;3.25;;;;;;;17.72;14.69;98623.38;4971028;28;20065;-74
2022/01/07 04:48:32;;;;;;;7.35;2.88;;;;;;;17.95;14.06;98618.47;4973472;28;20411;-74
2022/01/07 04:50:58;;;;;;;7.78;2.70;;;;;;;18.16;13.64;98615.13;4982108;28;20487;-74
2022/01/07 04:53:26;;;;;;;9.57;2.95;;;;;;;18.24;13.48;98625.97;4980174;28;20034;-74
2022/01/07 04:55:53;;;;;;;7.78;2.92;;;;;;;18.09;13.59;98631.72;4980101;28;20085;-74
2022/01/07 04:58:19;;;;;;;8.90;3.10;;;;;;;18.12;14.13;98619.88;4976026;28;20027;-74
2022/01/07 05:00:46;;;;;;;8.05;2.70;;;;;;;18.12;14.29;98617.88;4979718;28;20368;-75
2022/01/07 05:03:13;;;;;;;8.20;2.50;;;;;;;17.95;14.32;98615.72;4980322;28;20525;-74
2022/01/07 05:05:39;;;;;;;7.93;2.70;;;;;;;17.80;14.43;98617.53;4976400;28;20031;-75
2022/01/07 05:08:06;;;;;;;5.63;2.90;;;;;;;17.74;14.14;98621.00;4982850;28;20098;-74
2022/01/07 05:10:32;;;;;;;7.65;3.13;;;;;;;17.66;14.18;98622.13;4987935;28;20034;-74
2022/01/07 05:12:58;;;;;;;8.57;3.13;;;;;;;17.88;13.78;98612.84;4975256;28;20062;-74
2022/01/07 05:15:24;;;;;;;8.23;2.78;;;;;;;17.74;13.82;98616.25;4982792;28;20035;-74
2022/01/07 05:17:51;;;;;;;11.43;2.90;;;;;;;17.64;14.30;98610.59;4940465;28;1108505;-74
2022/01/07 05:20:18;;;;;;;10.88;3.22;;;;;;;17.75;13.98;98619.84;4974159;28;20039;-74
2022/01/07 05:22:45;;;;;;;7.22;2.80;;;;;;;17.93;13.64;98620.84;4976144;28;20035;-74
2022/01/07 05:25:13;;;;;;;8.00;2.72;;;;;;;18.09;13.44;98624.19;4972121;28;20486;-74
2022/01/07 05:27:39;;;;;;;9.45;2.78;;;;;;;18.16;13.38;98609.56;4986233;28;20090;-74
2022/01/07 05:30:07;;;;;;;8.02;2.72;;;;;;;18.13;13.42;98616.72;4976224;28;20114;-74
2022/01/07 05:32:36;;;;;;;5.28;2.30;;;;;;;18.17;13.65;98612.00;4983749;28;20033;-74
2022/01/07 05:35:03;;;;;;;7.88;3.22;;;;;;;17.87;13.94;98616.81;4969633;28;20071;-74
2022/01/07 05:37:29;;;;;;;8.25;3.75;;;;;;;17.52;14.24;98621.94;4976693;28;20507;-74
2022/01/07 05:39:57;;;;;;;12.55;3.58;;;;;;;17.49;14.55;98622.66;4974311;28;20487;-74
2022/01/07 05:42:23;;;;;;;8.70;3.03;;;;;;;17.56;14.56;98620.00;4971024;28;20127;-74
2022/01/07 05:44:49;;;;;;;7.50;2.25;;;;;;;17.61;14.65;98622.44;4978633;28;20501;-74
2022/01/07 05:47:15;;;;;;;11.00;3.30;;;;;;;17.56;14.23;98623.59;4973263;28;20109;-74
2022/01/07 05:49:41;;;;;;;7.65;2.85;;;;;;;17.47;14.33;98623.03;4976987;28;20027;-74
2022/01/07 05:52:07;;;;;;;5.63;2.47;;;;;;;17.44;14.22;98621.00;4974177;28;20043;-74
2022/01/07 05:54:33;;;;;;;9.18;2.72;;;;;;;17.78;13.66;98619.09;4975910;28;20023;-74
2022/01/07 05:57:00;;;;;;;10.48;3.15;;;;;;;17.87;13.69;98603.75;4973594;28;20118;-74
2022/01/07 05:59:26;;;;;;;10.93;3.20;;;;;;;18.06;13.24;98604.72;4977343;28;20022;-75
2022/01/07 06:01:52;;;;;;;8.00;2.85;;;;;;;18.09;13.09;98612.28;4972974;28;20041;-74
2022/01/07 06:04:18;;;;;;;9.15;3.13;;;;;;;17.96;13.51;98617.31;4968428;28;20047;-74
2022/01/07 06:06:44;;;;;;;7.80;2.90;;;;;;;18.04;14.16;98621.75;4968300;28;20038;-74
2022/01/07 06:09:10;;;;;;;8.20;2.67;;;;;;;17.96;13.92;98617.31;4971965;28;20027;-74
2022/01/07 06:11:36;;;;;;;7.13;2.60;;;;;;;17.96;13.38;98611.75;4969158;28;20483;-74
2022/01/07 06:14:02;;;;;;;6.53;2.85;;;;;;;17.61;13.46;98622.44;4970942;28;20026;-74
2022/01/07 06:16:29;;;;;;;7.78;3.28;;;;;;;17.60;13.55;98607.75;4977516;28;20055;-74
2022/01/07 06:18:56;;;;;;;10.20;3.28;;;;;;;17.74;13.73;98615.47;4972690;28;20482;-74
2022/01/07 06:21:23;;;;;;;6.55;2.63;;;;;;;17.92;13.65;98605.38;4969728;28;20031;-74
2022/01/07 06:23:49;;;;;;;8.95;3.40;;;;;;;17.95;13.12;98601.81;4973013;28;20042;-74
2022/01/07 06:26:16;;;;;;;4.85;2.53;;;;;;;17.93;13.24;98595.84;4968887;28;20026;-74
2022/01/07 06:28:43;;;;;;;6.63;2.88;;;;;;;18.05;13.56;98587.25;4976779;28;20470;-74
2022/01/07 06:31:09;;;;;;;9.95;3.22;;;;;;;17.90;13.54;98589.06;4973870;28;20386;-74
2022/01/07 06:33:35;;;;;;;6.57;2.72;;;;;;;17.72;14.11;98585.31;4971236;28;20048;-74
2022/01/07 06:36:01;;;;;;;6.80;2.55;;;;;;;17.77;13.92;98592.50;4970888;28;20045;-74
2022/01/07 06:38:27;;;;;;;7.78;2.85;;;;;;;17.99;13.68;98583.22;4971610;28;20117;-75
2022/01/07 06:40:53;;;;;;;10.57;3.50;;;;;;;17.61;13.92;98586.34;4974569;28;20035;-74
2022/01/07 06:43:19;;;;;;;6.28;2.70;;;;;;;17.56;14.07;98581.94;4950677;28;20538;-75
2022/01/07 06:45:46;;;;;;;9.40;3.58;;;;;;;17.73;13.65;98577.78;4965733;28;20129;-74
2022/01/07 06:48:12;;;;;;;7.90;3.25;;;;;;;17.96;13.30;98572.88;4966270;28;20055;-74
2022/01/07 06:50:38;;;;;;;9.93;3.83;;;;;;;18.06;13.05;98572.19;4969631;28;20100;-75
2022/01/07 06:53:04;;;;;;;13.02;4.47;;;;;;;17.60;13.42;98568.88;4968603;28;20037;-75
2022/01/07 06:55:30;;;;;;;12.10;3.42;;;;;;;17.73;13.54;98573.03;4963056;28;20054;-74
2022/01/07 06:57:56;;;;;;;9.63;3.50;;;;;;;17.75;13.60;98579.00;4969211;28;20031;-74
2022/01/07 07:00:22;;;;;;;10.63;3.65;;;;;;;17.90;13.35;98585.47;4964579;28;20098;-74
2022/01/07 07:02:48;;;;;;;9.55;3.35;;;;;;;17.99;13.59;98572.13;4969694;28;20042;-75
2022/01/07 07:05:14;;;;;;;10.02;4.18;;;;;;;17.86;13.25;98577.13;4975342;28;20041;-75
2022/01/07 07:07:40;;;;;;;8.50;3.60;;;;;;;17.85;13.24;98583.84;4976250;28;20034;-75
2022/01/07 07:10:07;;;;;;;7.43;2.45;;;;;;;17.90;13.32;98577.16;4959455;28;20031;-75
2022/01/07 07:12:33;;;;;;;6.32;2.45;;;;;;;17.93;13.34;98574.44;4957514;28;20027;-75
2022/01/07 07:14:59;;;;;;;7.95;2.53;;;;;;;17.97;13.56;98570.91;4960034;28;20513;-75
2022/01/07 07:17:25;;;;;;;9.68;3.10;;;;;;;18.25;13.25;98569.19;4947954;28;20043;-74
2022/01/07 07:19:52;;;;;;;8.05;3.13;;;;;;;18.12;13.54;98578.97;4945484;28;20054;-75
2022/01/07 07:22:18;;;;;;;7.95;2.60;;;;;;;18.35;13.07;98571.25;4943669;28;20036;-75
2022/01/07 07:24:44;;;;;;;6.90;2.55;;;;;;;18.22;13.47;98569.97;4951008;28;20050;-75
2022/01/07 07:27:10;;;;;;;7.75;2.45;;;;;;;18.04;13.85;98570.97;4950279;28;20501;-75
2022/01/07 07:29:36;;;;;;;13.68;3.15;;;;;;;18.27;13.64;98566.03;4951350;28;20035;-75
2022/01/07 07:32:06;;;;;;;5.57;2.92;;;;;;;17.97;13.84;98568.91;4945520;28;20035;-75
2022/01/07 07:37:05;;;;;;;7.65;3.20;;;;;;;17.77;13.76;98573.84;4950293;28;20035;-74
2022/01/07 07:39:32;;;;;;;5.78;2.60;;;;;;;17.94;13.88;98575.22;4949774;28;20407;-75
2022/01/07 07:41:58;;;;;;;6.68;2.67;;;;;;;18.36;13.57;98569.28;4944795;28;20109;-75
2022/01/07 07:44:24;;;;;;;9.15;3.30;;;;;;;18.79;13.08;98576.81;4941368;28;20051;-75
2022/01/07 07:46:51;;;;;;;5.22;2.45;;;;;;;19.13;12.81;98574.66;4943817;28;20830;-75
2022/01/07 07:49:18;;;;;;;5.65;2.75;;;;;;;19.18;13.03;98580.63;4950230;28;20031;-75
2022/01/07 07:51:46;;;;;;;7.05;2.42;;;;;;;19.31;13.01;98581.09;4945544;28;20035;-75
2022/01/07 07:54:13;;;;;;;7.93;2.88;;;;;;;19.61;12.97;98587.25;4949030;28;20423;-74
2022/01/07 07:56:39;;;;;;;12.38;4.97;;;;;;;19.81;12.93;98590.53;4950448;28;20031;-74
2022/01/07 07:59:06;;;;;;;20.50;7.10;;;;;;;19.84;13.05;98589.72;4945159;28;20027;-75
2022/01/07 08:01:32;;;;;;;15.73;4.60;;;;;;;19.92;13.45;98589.38;4943732;28;20103;-76
2022/01/07 08:03:58;;;;;;;18.67;4.38;;;;;;;20.05;13.23;98580.63;4944280;28;20179;-76
2022/01/07 08:06:24;;;;;;;8.95;4.38;;;;;;;19.63;13.72;98589.63;4945068;28;20041;-76
2022/01/07 08:08:50;;;;;;;7.28;3.70;;;;;;;19.52;13.98;98586.81;4946814;28;20069;-76
2022/01/07 08:11:17;;;;;;;10.95;3.88;;;;;;;19.69;13.27;98585.28;4951855;28;20126;-76
2022/01/07 08:16:28;;;;;;;9.50;4.05;;;;;;;19.91;13.17;98593.31;4942615;28;20774;-76
2022/01/07 08:18:57;;;;;;;13.85;4.38;;;;;;;19.99;13.25;98583.00;4947319;28;20183;-76
2022/01/07 08:21:26;;;;;;;15.18;5.32;;;;;;;20.09;13.50;98579.44;4950122;28;20126;-76
2022/01/07 08:23:53;;;;;;;13.70;5.18;;;;;;;20.27;13.51;98574.72;4944715;28;20026;-75
2022/01/07 08:26:21;;;;;;;12.27;5.57;;;;;;;20.43;13.42;98572.34;4943571;28;20061;-75
2022/01/07 08:29:00;;;;;;;17.10;5.65;;;;;;;20.24;13.07;98572.72;4943329;28;20031;-76
2022/01/07 08:36:45;;;;;;;10.57;4.22;;;;;;;20.55;13.00;98569.16;4951122;28;20098;-76
2022/01/07 08:39:11;;;;;;;15.88;4.93;;;;;;;20.19;14.15;98575.06;4956013;28;20031;-75
2022/01/07 08:41:38;;;;;;;10.90;4.30;;;;;;;20.25;13.68;98579.09;4955977;28;20493;-76
2022/01/07 08:44:06;;;;;;;9.48;4.35;;;;;;;20.24;13.11;98574.72;4960153;28;20479;-76
2022/01/07 08:46:32;;;;;;;7.43;3.33;;;;;;;20.50;12.88;98571.53;4960517;28;20031;-76
2022/01/07 08:48:58;;;;;;;10.77;3.30;;;;;;;20.52;12.66;98578.31;4959573;28;20122;-76
2022/01/07 08:51:26;;;;;;;7.90;2.85;;;;;;;20.63;12.50;98583.94;4966987;28;20070;-76
2022/01/07 08:53:53;;;;;;;6.97;3.30;;;;;;;20.68;12.60;98584.31;4945940;28;20373;-76
2022/01/07 08:56:23;;;;;;;7.90;3.13;;;;;;;20.80;12.80;98571.94;4943769;28;20027;-76
2022/01/07 08:58:50;;;;;;;7.93;3.08;;;;;;;20.80;13.29;98588.69;4950994;28;20520;-75
2022/01/07 09:01:16;;;;;;;6.50;2.95;;;;;;;20.78;13.40;98584.69;4953388;28;20031;-75
2022/01/07 09:03:42;;;;;;;8.68;4.13;;;;;;;20.72;13.11;98584.31;4954171;28;20483;-75
2022/01/07 09:06:08;;;;;;;10.52;3.72;;;;;;;20.87;13.04;98585.88;4956899;28;20086;-75
2022/01/07 09:08:35;;;;;;;8.70;3.78;;;;;;;20.95;13.06;98581.91;4958937;28;20364;-75
2022/01/07 09:11:01;;;;;;;9.70;4.18;;;;;;;21.06;12.79;98576.31;4953705;28;20604;-74
2022/01/07 09:13:27;;;;;;;12.10;4.50;;;;;;;21.17;13.05;98575.09;4958139;28;20055;-75
2022/01/07 09:15:54;;;;;;;12.55;5.75;;;;;;;21.33;12.76;98583.81;4955392;28;20039;-75
2022/01/07 09:18:21;;;;;;;12.68;5.07;;;;;;;21.42;12.82;98571.44;4954043;28;20047;-75
2022/01/07 09:20:48;;;;;;;15.23;6.40;;;;;;;21.17;12.94;98565.91;4955098;28;20028;-75
2022/01/07 09:23:14;;;;;;;15.82;5.75;;;;;;;21.16;12.86;98572.72;4952116;28;20130;-75
2022/01/07 09:25:41;;;;;;;12.45;6.50;;;;;;;21.18;12.89;98567.53;4954999;28;20558;-75
2022/01/07 09:28:08;;;;;;;11.13;4.50;;;;;;;21.27;12.42;98560.31;4946063;28;20381;-75
2022/01/07 09:30:35;;;;;;;11.98;4.10;;;;;;;21.07;12.48;98550.00;4944839;28;20048;-75
2022/01/07 09:33:03;;;;;;;12.45;4.32;;;;;;;20.97;13.01;98551.59;4953426;28;20471;-75
2022/01/07 09:35:29;;;;;;;10.25;3.83;;;;;;;21.02;12.64;98551.19;4950750;28;20044;-75
2022/01/07 09:37:55;;;;;;;10.32;4.40;;;;;;;20.84;13.44;98553.19;4951585;28;20023;-75
2022/01/07 09:40:22;;;;;;;11.85;3.88;;;;;;;20.67;13.38;98545.66;4952517;28;20047;-75
2022/01/07 09:42:59;;;;;;;12.85;3.63;;;;;;;21.05;13.28;98541.25;4950231;28;20389;-75
2022/01/07 09:45:27;;;;;;;13.25;3.88;;;;;;;21.13;13.00;98545.59;4947172;28;20054;-75
2022/01/07 09:47:54;;;;;;;11.35;4.00;;;;;;;21.33;13.10;98538.38;4955524;28;20091;-74
2022/01/07 09:50:22;;;;;;;9.68;3.92;;;;;;;21.60;12.73;98535.84;4959068;28;20043;-74
2022/01/07 09:52:48;;;;;;;6.53;3.00;;;;;;;21.58;13.02;98538.25;4952178;28;20395;-74
2022/01/07 09:55:14;;;;;;;10.23;3.65;;;;;;;21.77;12.89;98532.19;4959636;28;20030;-74
2022/01/07 09:57:40;;;;;;;9.32;3.90;;;;;;;21.98;12.95;98532.84;4951951;28;20459;-75
2022/01/07 10:00:08;;;;;;;18.92;6.78;;;;;;;22.01;12.49;98536.84;4950327;28;20043;-75
2022/01/07 10:02:34;;;;;;;10.25;5.18;;;;;;;22.26;12.54;98534.69;4948417;28;20058;-74
2022/01/07 10:05:15;;;;;;;9.57;3.67;;;;;;;22.36;12.28;98539.38;4935729;28;20091;-74
2022/01/07 10:07:42;;;;;;;;;;;;;;;22.28;11.86;98532.28;4951300;28;20403;-75
2022/01/07 10:10:13;;;;;;;7.32;2.78;;;;;;;22.40;11.91;98526.19;4936320;28;19964;-74
2022/01/07 10:12:55;;;;;;;9.60;3.47;;;;;;;22.62;12.01;98527.59;4954334;28;20053;-74
2022/01/07 10:15:25;;;;;;;7.45;2.35;;;;;;;22.75;11.66;98529.91;4953210;28;20043;-74
2022/01/07 10:18:08;;;;;;;13.55;4.10;;;;;;;22.94;11.28;98530.09;4969671;28;20055;-75
2022/01/07 10:20:37;;;;;;;9.07;3.85;;;;;;;23.07;10.89;98525.56;4972152;28;20394;-74
2022/01/07 10:23:25;;;;;;;7.45;3.08;;;;;;;23.06;11.40;98521.16;4970782;28;20250;-74
2022/01/07 10:25:56;;;;;;;8.20;2.83;;;;;;;22.92;11.55;98520.53;4973773;28;20027;-75
2022/01/07 10:28:29;;;;;;;8.10;2.97;;;;;;;22.77;11.35;98513.47;4971950;28;20475;-74
2022/01/07 10:30:56;;;;;;;7.43;2.88;;;;;;;22.62;10.78;98510.81;4972019;28;20427;-75
2022/01/07 10:33:22;;;;;;;7.35;2.78;;;;;;;22.19;11.34;98515.16;4972721;28;20043;-74
2022/01/07 10:36:08;;;;;;;7.43;2.85;;;;;;;22.38;11.60;98509.00;4975171;28;20038;-74
2022/01/07 10:38:44;;;;;;;8.35;3.10;;;;;;;22.10;11.55;98508.44;4970918;28;20039;-74
2022/01/07 10:41:13;;;;;;;7.35;3.00;;;;;;;21.94;11.90;98506.94;4969697;28;20167;-74
2022/01/07 10:43:39;;;;;;;4.28;2.05;;;;;;;22.18;11.72;98504.38;4969495;28;20035;-75
2022/01/07 10:46:11;;;;;;;7.03;2.50;;;;;;;22.60;11.94;98499.25;4970103;28;20035;-74
2022/01/07 10:48:41;;;;;;;7.05;2.58;;;;;;;23.20;11.52;98509.81;4970737;28;20027;-75
2022/01/07 10:51:13;;;;;;;6.10;2.65;;;;;;;23.49;11.32;98504.69;4971775;28;20510;-75
2022/01/07 10:53:40;;;;;;;8.23;2.63;;;;;;;23.57;11.11;98506.16;4965263;28;20042;-75
2022/01/07 10:56:15;;;;;;;11.95;4.35;;;;;;;23.44;11.11;98499.53;4971362;28;20039;-74
2022/01/07 10:58:47;;;;;;;9.48;3.22;;;;;;;23.49;10.92;98506.69;4970171;28;20027;-74
2022/01/07 11:01:22;;;;;;;11.25;3.33;;;;;;;23.70;11.14;98487.59;4974653;28;20059;-75
2022/01/07 11:03:57;;;;;;;9.70;3.53;;;;;;;24.02;10.90;98487.91;4955143;28;20151;-76
2022/01/07 11:06:25;;;;;;;7.85;2.67;;;;;;;24.10;10.59;98490.63;4970056;28;20438;-77
2022/01/07 11:08:53;;;;;;;8.02;3.28;;;;;;;24.05;11.02;98486.28;4973523;28;20063;-75
2022/01/07 11:11:21;;;;;;;6.50;2.45;;;;;;;24.16;10.99;98486.94;4966587;28;20039;-76
2022/01/07 11:13:47;;;;;;;8.77;3.30;;;;;;;24.42;10.51;98469.25;4969629;28;20397;-76
2022/01/07 11:16:13;;;;;;;3.15;1.58;;;;;;;24.58;10.38;98468.56;4967308;28;20503;-75
2022/01/07 11:18:42;;;;;;;5.07;1.80;;;;;;;24.59;10.41;98468.16;4968003;28;20043;-75
2022/01/07 11:21:10;;;;;;;8.35;2.63;;;;;;;24.03;10.15;98461.47;4972244;28;20521;-75
2022/01/07 11:23:38;;;;;;;5.22;2.47;;;;;;;24.06;10.35;98465.47;4971544;28;20022;-75
2022/01/07 11:26:07;;;;;;;9.35;2.47;;;;;;;23.75;11.02;98456.28;4967497;28;20031;-76
2022/01/07 11:28:34;;;;;;;4.90;2.10;;;;;;;23.67;10.34;98453.97;4966103;28;20522;-76
2022/01/07 11:31:11;;;;;;;6.53;2.88;;;;;;;23.86;11.33;98448.50;4970096;28;20231;-75
2022/01/07 11:33:37;;;;;;;5.00;1.75;;;;;;;24.09;10.91;98442.16;4971440;28;20039;-75
2022/01/07 11:36:04;;;;;;;7.07;2.58;;;;;;;24.09;10.72;98444.16;4964442;28;20375;-76
2022/01/07 11:38:42;;;;;;;6.75;2.75;;;;;;;24.09;10.64;98441.34;4970527;28;20035;-75
2022/01/07 11:41:15;;;;;;;4.75;2.13;;;;;;;23.79;10.62;98443.00;4961804;28;20035;-77